Time;durP1;ratioP1;P1;durP2;ratioP2;P2;SDS_P1;SDS_P2;PMS_P1;PMS_P2;Temp;Humidity;BMP_temperature;BMP_pressure;BME280_temperature;BME280_humidity;BME280_pressure;Samples;Min_cycle;Max_cycle;Signal;HPM_P1;HPM_P2
2023/11/05 00:00:25;;;;;;;5.45;3.33;;;;;;;;;;5017786;28;20025;-69
2023/11/05 00:02:51;;;;;;;4.57;2.85;;;;;;;;;;5023734;28;20501;-68
2023/11/05 00:05:16;;;;;;;4.85;3.67;;;;;;;;;;5023656;28;20026;-69
2023/11/05 00:07:42;;;;;;;6.78;3.60;;;;;;;;;;5016909;28;20129;-68
2023/11/05 00:10:07;;;;;;;5.88;3.75;;;;;;;;;;5025104;28;20061;-68
2023/11/05 00:12:33;;;;;;;5.18;3.80;;;;;;;;;;5018376;28;20037;-68
2023/11/05 00:14:58;;;;;;;5.38;3.72;;;;;;;;;;5020160;28;20477;-68
2023/11/05 00:17:23;;;;;;;4.30;3.40;;;;;;;;;;5027301;28;20033;-68
2023/11/05 00:19:49;;;;;;;4.35;3.38;;;;;;;;;;5027767;28;20434;-67
2023/11/05 00:22:14;;;;;;;6.15;4.13;;;;;;;;;;5023122;28;20375;-68
2023/11/05 00:24:39;;;;;;;5.28;3.67;;;;;;;;;;5017132;28;20022;-67
2023/11/05 00:27:05;;;;;;;5.30;3.92;;;;;;;;;;5023978;28;20038;-66
2023/11/05 00:29:30;;;;;;;6.28;3.78;;;;;;;;;;5019203;28;20037;-67
2023/11/05 00:31:56;;;;;;;6.78;4.28;;;;;;;;;;5026543;28;20483;-67
2023/11/05 00:34:21;;;;;;;6.68;4.25;;;;;;;;;;5023844;28;20055;-67
2023/11/05 00:36:46;;;;;;;6.40;4.00;;;;;;;;;;5033486;28;20025;-68
2023/11/05 00:39:11;;;;;;;6.75;4.53;;;;;;;;;;5034313;28;20097;-67
2023/11/05 00:41:37;;;;;;;4.78;3.75;;;;;;;;;;5034449;28;20032;-68
2023/11/05 00:44:03;;;;;;;5.78;3.95;;;;;;;;;;5033821;28;20068;-68
2023/11/05 00:46:28;;;;;;;7.03;4.22;;;;;;;;;;5005238;28;20057;-67
2023/11/05 00:48:53;;;;;;;4.85;3.67;;;;;;;;;;5032031;28;20026;-68
2023/11/05 00:51:19;;;;;;;5.93;4.40;;;;;;;;;;5034302;28;20067;-68
2023/11/05 00:53:44;;;;;;;6.65;4.45;;;;;;;;;;5033766;28;20036;-67
2023/11/05 00:56:13;;;;;;;6.10;4.18;;;;;;;;;;5034052;28;20105;-67
2023/11/05 00:58:38;;;;;;;6.63;4.53;;;;;;;;;;5033343;28;20025;-68
2023/11/05 01:01:03;;;;;;;6.53;4.72;;;;;;;;;;5023183;28;20030;-68
2023/11/05 01:03:29;;;;;;;5.47;3.88;;;;;;;;;;5031475;28;20059;-67
2023/11/05 01:05:54;;;;;;;5.65;3.92;;;;;;;;;;5033692;28;20111;-68
2023/11/05 01:08:20;;;;;;;6.00;4.15;;;;;;;;;;5033612;28;20028;-68
2023/11/05 01:10:45;;;;;;;7.20;3.95;;;;;;;;;;5033306;28;20029;-67
2023/11/05 01:13:10;;;;;;;6.68;4.22;;;;;;;;;;5033832;28;20021;-68
2023/11/05 01:15:35;;;;;;;7.47;4.18;;;;;;;;;;5033491;28;20394;-67
2023/11/05 01:18:01;;;;;;;6.63;4.15;;;;;;;;;;5013832;28;20025;-68
2023/11/05 01:20:27;;;;;;;5.90;4.32;;;;;;;;;;5003123;28;20538;-68
2023/11/05 01:22:53;;;;;;;5.85;4.20;;;;;;;;;;5014450;28;20026;-68
2023/11/05 01:25:19;;;;;;;8.63;4.18;;;;;;;;;;5013666;28;20498;-67
2023/11/05 01:27:44;;;;;;;7.13;4.00;;;;;;;;;;5015775;28;20482;-67
2023/11/05 01:30:10;;;;;;;9.18;4.65;;;;;;;;;;5033735;28;20156;-68
2023/11/05 01:32:35;;;;;;;6.70;5.40;;;;;;;;;;5033236;28;20530;-68
2023/11/05 01:35:01;;;;;;;7.00;4.88;;;;;;;;;;5033810;28;20029;-68
2023/11/05 01:37:26;;;;;;;6.82;4.38;;;;;;;;;;5033244;28;20047;-68
2023/11/05 01:39:51;;;;;;;6.40;4.60;;;;;;;;;;5014993;28;20026;-68
2023/11/05 01:42:16;;;;;;;6.85;4.72;;;;;;;;;;5032700;28;20033;-67
2023/11/05 01:44:42;;;;;;;7.97;5.00;;;;;;;;;;5029354;28;20420;-67
2023/11/05 01:47:09;;;;;;;6.55;5.00;;;;;;;;;;5033378;28;20037;-68
2023/11/05 01:49:34;;;;;;;7.30;5.47;;;;;;;;;;5015563;28;20022;-68
2023/11/05 01:52:00;;;;;;;7.78;5.15;;;;;;;;;;5033118;28;20525;-68
2023/11/05 01:54:25;;;;;;;6.90;4.63;;;;;;;;;;5016981;28;20021;-68
2023/11/05 01:56:51;;;;;;;11.10;5.65;;;;;;;;;;5016644;28;20028;-68
2023/11/05 01:59:17;;;;;;;8.32;5.53;;;;;;;;;;4996172;28;20033;-68
2023/11/05 02:01:42;;;;;;;7.65;4.63;;;;;;;;;;5016508;28;20038;-68
2023/11/05 02:04:08;;;;;;;6.38;4.82;;;;;;;;;;4996020;28;20065;-68
2023/11/05 02:06:38;;;;;;;7.50;4.65;;;;;;;;;;5015967;28;20038;-68
2023/11/05 02:09:04;;;;;;;7.72;5.13;;;;;;;;;;5033222;28;20021;-68
2023/11/05 02:11:29;;;;;;;6.93;5.22;;;;;;;;;;5034206;28;20433;-68
2023/11/05 02:13:55;;;;;;;6.57;4.45;;;;;;;;;;5034028;28;20410;-68
2023/11/05 02:16:21;;;;;;;6.93;4.50;;;;;;;;;;5034357;28;20029;-68
2023/11/05 02:18:47;;;;;;;7.28;4.70;;;;;;;;;;5015905;28;20478;-69
2023/11/05 02:21:44;;;;;;;7.95;5.50;;;;;;;;;;5015599;28;20116;-68
2023/11/05 02:24:09;;;;;;;9.10;5.30;;;;;;;;;;5033492;28;20033;-68
2023/11/05 02:26:34;;;;;;;7.53;4.50;;;;;;;;;;5033507;28;20029;-68
2023/11/05 02:29:00;;;;;;;7.60;5.10;;;;;;;;;;5032858;28;20026;-68
2023/11/05 02:31:25;;;;;;;7.47;5.07;;;;;;;;;;5033509;28;20024;-68
2023/11/05 02:33:51;;;;;;;7.55;4.82;;;;;;;;;;5033275;28;20025;-68
2023/11/05 02:36:16;;;;;;;7.43;5.20;;;;;;;;;;5033315;28;20029;-68
2023/11/05 02:38:42;;;;;;;7.75;4.47;;;;;;;;;;5033252;28;20025;-68
2023/11/05 02:41:10;;;;;;;6.38;4.30;;;;;;;;;;5015315;28;20120;-68
2023/11/05 02:43:35;;;;;;;6.85;4.57;;;;;;;;;;5014710;28;20049;-68
2023/11/05 02:46:01;;;;;;;8.77;5.07;;;;;;;;;;5033118;28;20030;-68
2023/11/05 02:48:26;;;;;;;6.45;4.28;;;;;;;;;;5033136;28;20029;-68
2023/11/05 02:50:51;;;;;;;8.13;4.30;;;;;;;;;;5033387;28;20022;-68
2023/11/05 02:53:18;;;;;;;8.48;5.35;;;;;;;;;;5033041;28;20075;-68
2023/11/05 02:55:43;;;;;;;7.13;4.82;;;;;;;;;;5032356;28;20033;-69
2023/11/05 02:58:11;;;;;;;7.32;4.63;;;;;;;;;;5015388;28;20113;-68
2023/11/05 03:00:37;;;;;;;7.00;4.20;;;;;;;;;;5033025;28;20025;-69
2023/11/05 03:03:02;;;;;;;12.27;4.80;;;;;;;;;;5032535;28;20029;-68
2023/11/05 03:05:27;;;;;;;8.60;4.32;;;;;;;;;;5032795;28;20025;-69
2023/11/05 03:07:53;;;;;;;9.18;5.60;;;;;;;;;;5033329;28;20438;-69
2023/11/05 03:10:18;;;;;;;8.30;4.93;;;;;;;;;;5036103;28;20060;-68
2023/11/05 03:12:43;;;;;;;6.80;5.28;;;;;;;;;;5035648;28;20037;-69
2023/11/05 03:15:09;;;;;;;8.05;4.88;;;;;;;;;;5036523;28;20021;-68
2023/11/05 03:17:36;;;;;;;7.45;4.65;;;;;;;;;;5018559;28;20034;-68
2023/11/05 03:20:03;;;;;;;10.98;5.93;;;;;;;;;;5036389;28;20025;-68
2023/11/05 03:22:28;;;;;;;7.47;4.75;;;;;;;;;;5036096;28;20060;-68
2023/11/05 03:24:54;;;;;;;8.15;4.78;;;;;;;;;;5035326;28;20037;-68
2023/11/05 03:27:19;;;;;;;8.02;4.60;;;;;;;;;;5018258;28;20418;-69
2023/11/05 03:29:44;;;;;;;7.18;4.45;;;;;;;;;;5036221;28;20470;-68
2023/11/05 03:32:09;;;;;;;8.80;4.68;;;;;;;;;;5035985;28;20057;-69
2023/11/05 03:34:35;;;;;;;7.93;4.53;;;;;;;;;;5035299;28;20017;-67
2023/11/05 03:37:00;;;;;;;8.40;5.30;;;;;;;;;;5019393;28;20036;-68
2023/11/05 03:39:25;;;;;;;7.72;4.68;;;;;;;;;;5017722;28;20164;-68
2023/11/05 03:41:51;;;;;;;8.10;5.05;;;;;;;;;;5015443;28;20030;-68
2023/11/05 03:44:16;;;;;;;9.13;4.43;;;;;;;;;;5015630;28;20022;-68
2023/11/05 03:46:41;;;;;;;9.27;4.53;;;;;;;;;;5015230;28;20498;-68
2023/11/05 03:49:07;;;;;;;7.28;4.53;;;;;;;;;;5016191;28;20021;-68
2023/11/05 03:51:32;;;;;;;6.70;4.78;;;;;;;;;;4998202;28;20029;-68
2023/11/05 03:53:57;;;;;;;6.75;4.63;;;;;;;;;;5015706;28;20478;-68
2023/11/05 03:56:22;;;;;;;8.73;4.68;;;;;;;;;;5023892;28;20108;-68
2023/11/05 03:58:50;;;;;;;8.55;5.10;;;;;;;;;;5035259;28;20406;-68
2023/11/05 04:01:18;;;;;;;7.25;4.97;;;;;;;;;;5034881;28;20032;-68
2023/11/05 04:03:43;;;;;;;10.93;5.32;;;;;;;;;;5017503;28;20490;-68
2023/11/05 04:06:09;;;;;;;8.48;5.63;;;;;;;;;;5016683;28;20041;-68
2023/11/05 04:08:34;;;;;;;8.95;5.35;;;;;;;;;;5017582;28;20022;-68
2023/11/05 04:10:59;;;;;;;8.48;5.40;;;;;;;;;;5035166;28;20033;-68
2023/11/05 04:13:25;;;;;;;10.93;5.65;;;;;;;;;;5035270;28;20020;-68
2023/11/05 04:15:50;;;;;;;9.30;5.60;;;;;;;;;;5035241;28;20025;-69
2023/11/05 04:18:16;;;;;;;11.50;6.03;;;;;;;;;;5034947;28;20018;-68
2023/11/05 04:20:41;;;;;;;8.32;5.20;;;;;;;;;;5034787;28;20479;-69
2023/11/05 04:23:06;;;;;;;9.02;5.60;;;;;;;;;;5034592;28;20021;-68
2023/11/05 04:25:31;;;;;;;10.13;5.82;;;;;;;;;;5034701;28;20120;-68
2023/11/05 04:27:57;;;;;;;8.60;6.00;;;;;;;;;;5034753;28;20021;-68
2023/11/05 04:30:22;;;;;;;10.90;6.35;;;;;;;;;;5034338;28;20113;-68
2023/11/05 04:32:47;;;;;;;8.85;5.63;;;;;;;;;;5035120;28;20065;-69
2023/11/05 04:35:13;;;;;;;10.27;6.15;;;;;;;;;;5034365;28;20110;-68
2023/11/05 04:37:38;;;;;;;11.73;5.97;;;;;;;;;;5034125;28;20025;-68
2023/11/05 04:40:04;;;;;;;10.85;6.03;;;;;;;;;;5034426;28;20103;-69
2023/11/05 04:42:30;;;;;;;8.98;6.28;;;;;;;;;;5034392;28;20060;-68
2023/11/05 04:44:55;;;;;;;9.95;6.15;;;;;;;;;;5016887;28;20030;-69
2023/11/05 04:47:20;;;;;;;8.68;5.88;;;;;;;;;;5034481;28;20028;-68
2023/11/05 04:49:48;;;;;;;7.95;5.90;;;;;;;;;;5034593;28;20073;-69
2023/11/05 04:52:13;;;;;;;9.23;6.00;;;;;;;;;;5033614;28;20024;-68
2023/11/05 04:54:42;;;;;;;6.55;5.00;;;;;;;;;;5033990;28;20025;-68
2023/11/05 04:57:07;;;;;;;9.63;5.55;;;;;;;;;;5016801;28;20041;-68
2023/11/05 04:59:34;;;;;;;10.27;6.32;;;;;;;;;;5034146;28;20029;-68
2023/11/05 05:01:59;;;;;;;10.05;5.40;;;;;;;;;;5034659;28;20021;-68
2023/11/05 05:04:25;;;;;;;7.82;5.18;;;;;;;;;;5033679;28;20035;-68
2023/11/05 05:06:51;;;;;;;10.48;5.85;;;;;;;;;;5033859;28;20096;-68
2023/11/05 05:09:17;;;;;;;9.55;5.25;;;;;;;;;;5016776;28;20394;-68
2023/11/05 05:11:43;;;;;;;8.82;6.03;;;;;;;;;;5016388;28;20549;-69
2023/11/05 05:14:08;;;;;;;9.90;5.68;;;;;;;;;;5033293;28;20056;-68
2023/11/05 05:16:34;;;;;;;9.15;5.45;;;;;;;;;;5033672;28;20422;-68
2023/11/05 05:18:59;;;;;;;10.65;5.25;;;;;;;;;;5016195;28;20025;-69
2023/11/05 05:21:24;;;;;;;10.27;5.78;;;;;;;;;;5015586;28;20017;-68
2023/11/05 05:23:50;;;;;;;10.57;5.63;;;;;;;;;;5033565;28;20510;-69
2023/11/05 05:26:15;;;;;;;10.20;5.93;;;;;;;;;;5033046;28;20108;-68
2023/11/05 05:28:40;;;;;;;10.90;6.05;;;;;;;;;;5033710;28;20041;-69
2023/11/05 05:31:05;;;;;;;9.40;5.97;;;;;;;;;;5033241;28;20033;-69
2023/11/05 05:33:31;;;;;;;10.10;5.28;;;;;;;;;;5033317;28;20030;-68
2023/11/05 05:35:56;;;;;;;10.35;5.82;;;;;;;;;;5033145;28;20486;-69
2023/11/05 05:38:24;;;;;;;9.32;5.65;;;;;;;;;;5033806;28;20108;-68
2023/11/05 05:40:50;;;;;;;10.27;5.25;;;;;;;;;;5016105;28;20036;-68
2023/11/05 05:43:15;;;;;;;9.00;5.63;;;;;;;;;;5033380;28;20025;-68
2023/11/05 05:45:40;;;;;;;8.93;4.95;;;;;;;;;;5033433;28;20029;-69
2023/11/05 05:48:06;;;;;;;11.38;5.88;;;;;;;;;;5033275;28;20433;-68
2023/11/05 05:50:31;;;;;;;10.90;5.05;;;;;;;;;;5032964;28;20064;-69
2023/11/05 05:52:57;;;;;;;12.18;5.85;;;;;;;;;;5033588;28;20029;-68
2023/11/05 05:55:22;;;;;;;10.45;5.10;;;;;;;;;;5033372;28;20030;-69
2023/11/05 05:57:47;;;;;;;9.88;6.22;;;;;;;;;;5032914;28;20017;-68
2023/11/05 06:00:13;;;;;;;8.05;5.53;;;;;;;;;;5034035;28;20021;-68
2023/11/05 06:02:41;;;;;;;9.23;4.75;;;;;;;;;;5034530;28;20025;-68
2023/11/05 06:05:08;;;;;;;10.07;5.90;;;;;;;;;;5033415;28;20056;-68
2023/11/05 06:07:35;;;;;;;9.50;4.65;;;;;;;;;;5032607;28;20026;-68
2023/11/05 06:10:02;;;;;;;9.70;5.28;;;;;;;;;;5015669;28;20371;-68
2023/11/05 06:12:28;;;;;;;11.43;5.80;;;;;;;;;;5015594;28;20045;-68
2023/11/05 06:14:53;;;;;;;11.48;5.22;;;;;;;;;;5015232;28;20475;-68
2023/11/05 06:17:19;;;;;;;12.95;5.45;;;;;;;;;;5033012;28;20479;-68
2023/11/05 06:19:44;;;;;;;10.25;5.10;;;;;;;;;;5032648;28;20022;-68
2023/11/05 06:22:10;;;;;;;10.30;5.18;;;;;;;;;;5033273;28;20057;-68
2023/11/05 06:24:38;;;;;;;9.93;6.40;;;;;;;;;;5015067;28;20068;-68
2023/11/05 06:27:03;;;;;;;9.48;4.93;;;;;;;;;;5011598;28;20025;-68
2023/11/05 06:29:29;;;;;;;6.57;4.78;;;;;;;;;;5013096;28;20032;-69
2023/11/05 06:31:54;;;;;;;6.72;4.65;;;;;;;;;;5014582;28;20025;-68
2023/11/05 06:34:19;;;;;;;8.07;4.80;;;;;;;;;;5015170;28;20041;-68
2023/11/05 06:36:55;;;;;;;10.13;4.95;;;;;;;;;;5010734;28;20112;-68
2023/11/05 06:39:21;;;;;;;6.82;4.28;;;;;;;;;;5032821;28;20435;-68
2023/11/05 06:41:47;;;;;;;7.88;4.70;;;;;;;;;;5005247;28;20057;-68
2023/11/05 06:44:12;;;;;;;10.05;5.10;;;;;;;;;;5015724;28;20050;-68
2023/11/05 06:46:37;;;;;;;7.63;4.47;;;;;;;;;;5016654;28;20022;-67
2023/11/05 06:49:02;;;;;;;12.30;5.10;;;;;;;;;;5036845;28;20101;-68
2023/11/05 06:51:28;;;;;;;12.10;5.35;;;;;;;;;;5018156;28;20479;-68
2023/11/05 06:53:53;;;;;;;8.65;4.60;;;;;;;;;;5036582;28;20080;-68
2023/11/05 06:56:18;;;;;;;7.82;4.38;;;;;;;;;;5036129;28;20025;-68
2023/11/05 06:58:44;;;;;;;12.82;4.43;;;;;;;;;;5036605;28;20509;-68
2023/11/05 07:01:09;;;;;;;7.85;4.38;;;;;;;;;;5035620;28;20427;-68
2023/11/05 07:03:34;;;;;;;11.73;4.55;;;;;;;;;;5036086;28;20030;-68
2023/11/05 07:05:59;;;;;;;7.35;4.82;;;;;;;;;;5036110;28;20032;-68
2023/11/05 07:08:27;;;;;;;6.50;3.92;;;;;;;;;;5036009;28;20025;-68
2023/11/05 07:10:52;;;;;;;7.07;4.03;;;;;;;;;;5036135;28;20030;-68
2023/11/05 07:13:18;;;;;;;7.45;4.40;;;;;;;;;;5035850;28;20033;-68
2023/11/05 07:15:43;;;;;;;7.68;4.13;;;;;;;;;;5018582;28;20505;-68
2023/11/05 07:18:09;;;;;;;8.95;4.40;;;;;;;;;;5036071;28;20025;-68
2023/11/05 07:20:35;;;;;;;11.77;4.22;;;;;;;;;;5035338;28;20025;-68
2023/11/05 07:23:01;;;;;;;12.27;5.00;;;;;;;;;;5036067;28;20100;-68
2023/11/05 07:25:27;;;;;;;6.40;4.05;;;;;;;;;;5035491;28;20585;-68
2023/11/05 07:27:53;;;;;;;9.38;3.72;;;;;;;;;;5018252;28;20040;-68
2023/11/05 07:30:18;;;;;;;7.45;4.28;;;;;;;;;;5017697;28;20387;-69
2023/11/05 07:32:44;;;;;;;9.63;4.22;;;;;;;;;;5035600;28;20044;-68
2023/11/05 07:35:09;;;;;;;8.05;4.90;;;;;;;;;;5017804;28;20024;-67
2023/11/05 07:37:34;;;;;;;10.60;4.32;;;;;;;;;;5018068;28;20164;-69
2023/11/05 07:40:00;;;;;;;6.65;4.20;;;;;;;;;;5035766;28;20083;-68
2023/11/05 07:42:25;;;;;;;8.45;4.78;;;;;;;;;;5034975;28;20027;-68
2023/11/05 07:44:50;;;;;;;8.52;4.15;;;;;;;;;;5035739;28;20029;-68
2023/11/05 07:47:16;;;;;;;11.02;4.30;;;;;;;;;;5035199;28;20021;-68
2023/11/05 07:49:41;;;;;;;7.07;3.95;;;;;;;;;;5034810;28;20475;-68
2023/11/05 07:52:07;;;;;;;9.30;4.88;;;;;;;;;;5035424;28;20026;-68
2023/11/05 07:54:33;;;;;;;10.85;4.03;;;;;;;;;;5034361;28;20018;-68
2023/11/05 07:56:58;;;;;;;8.15;3.55;;;;;;;;;;5035190;28;20121;-68
2023/11/05 07:59:23;;;;;;;5.88;4.22;;;;;;;;;;5035104;28;20049;-70
2023/11/05 08:01:49;;;;;;;6.13;3.60;;;;;;;;;;5034848;28;20021;-71
2023/11/05 08:04:15;;;;;;;9.90;4.15;;;;;;;;;;5035169;28;20033;-71
2023/11/05 08:06:40;;;;;;;6.13;3.97;;;;;;;;;;5034918;28;20021;-71
2023/11/05 08:09:06;;;;;;;8.00;4.35;;;;;;;;;;5035242;28;20405;-71
2023/11/05 08:11:32;;;;;;;8.57;4.38;;;;;;;;;;5035409;28;20026;-71
2023/11/05 08:13:57;;;;;;;7.75;3.80;;;;;;;;;;5035118;28;20582;-71
2023/11/05 08:16:22;;;;;;;6.75;4.35;;;;;;;;;;5034804;28;20025;-71
2023/11/05 08:18:48;;;;;;;9.70;4.35;;;;;;;;;;5035436;28;20025;-71
2023/11/05 08:21:13;;;;;;;5.18;3.65;;;;;;;;;;5035159;28;20390;-71
2023/11/05 08:23:38;;;;;;;6.03;3.78;;;;;;;;;;5017220;28;20510;-72
2023/11/05 08:26:04;;;;;;;6.18;3.67;;;;;;;;;;5034804;28;20404;-70
2023/11/05 08:28:30;;;;;;;11.35;4.03;;;;;;;;;;5035107;28;20036;-71
2023/11/05 08:30:55;;;;;;;6.60;3.63;;;;;;;;;;5035054;28;20538;-71
2023/11/05 08:33:21;;;;;;;8.35;3.92;;;;;;;;;;5035003;28;20455;-71
2023/11/05 08:35:47;;;;;;;6.55;3.72;;;;;;;;;;5034900;28;20017;-71
2023/11/05 08:38:12;;;;;;;8.05;3.72;;;;;;;;;;5017005;28;20188;-71
2023/11/05 08:40:37;;;;;;;6.32;3.53;;;;;;;;;;5017232;28;20061;-71
2023/11/05 08:43:04;;;;;;;7.75;3.85;;;;;;;;;;5034645;28;20017;-72
2023/11/05 08:45:29;;;;;;;6.45;3.63;;;;;;;;;;5034577;28;20026;-71
2023/11/05 08:47:55;;;;;;;5.63;3.28;;;;;;;;;;5034151;28;20021;-72
2023/11/05 08:50:24;;;;;;;5.15;3.72;;;;;;;;;;5017289;28;20397;-71
2023/11/05 08:52:49;;;;;;;6.93;3.47;;;;;;;;;;5034824;28;20025;-71
2023/11/05 08:55:14;;;;;;;10.25;3.80;;;;;;;;;;5034363;28;20121;-71
2023/11/05 08:57:40;;;;;;;10.38;4.63;;;;;;;;;;5034425;28;20502;-71
2023/11/05 09:00:11;;;;;;;7.72;3.10;;;;;;;;;;5016735;28;20029;-70
2023/11/05 09:02:37;;;;;;;6.03;3.10;;;;;;;;;;5034790;28;20033;-71
2023/11/05 09:05:05;;;;;;;7.60;2.92;;;;;;;;;;5034280;28;20029;-70
2023/11/05 09:07:31;;;;;;;8.85;3.05;;;;;;;;;;5016623;28;20036;-71
2023/11/05 09:09:56;;;;;;;6.20;2.72;;;;;;;;;;5016801;28;20021;-71
2023/11/05 09:12:22;;;;;;;7.32;2.70;;;;;;;;;;5034350;28;20060;-71
2023/11/05 09:14:47;;;;;;;7.50;2.72;;;;;;;;;;5033679;28;20025;-70
2023/11/05 09:17:13;;;;;;;6.60;2.80;;;;;;;;;;5034252;28;20418;-71
2023/11/05 09:19:38;;;;;;;6.25;2.97;;;;;;;;;;5034074;28;20163;-71
2023/11/05 09:22:03;;;;;;;5.85;2.75;;;;;;;;;;5016586;28;20033;-71
2023/11/05 09:24:29;;;;;;;9.55;2.90;;;;;;;;;;5033660;28;20025;-71
2023/11/05 09:26:55;;;;;;;6.75;2.45;;;;;;;;;;5015655;28;20115;-71
2023/11/05 09:29:20;;;;;;;3.92;2.15;;;;;;;;;;5016557;28;20492;-71
2023/11/05 09:31:47;;;;;;;3.80;2.22;;;;;;;;;;5033798;28;20021;-71
2023/11/05 09:34:14;;;;;;;5.80;2.60;;;;;;;;;;5034119;28;20083;-71
2023/11/05 09:36:39;;;;;;;7.97;2.45;;;;;;;;;;5016034;28;20040;-71
2023/11/05 09:39:07;;;;;;;4.80;2.60;;;;;;;;;;5034142;28;20028;-71
2023/11/05 09:41:34;;;;;;;5.15;2.70;;;;;;;;;;5033982;28;20029;-71
2023/11/05 09:43:59;;;;;;;4.10;2.38;;;;;;;;;;5016227;28;20017;-71
2023/11/05 09:46:25;;;;;;;7.03;2.30;;;;;;;;;;5033797;28;20430;-71
2023/11/05 09:48:50;;;;;;;5.97;2.70;;;;;;;;;;5034166;28;20017;-71
2023/11/05 09:51:15;;;;;;;6.78;2.30;;;;;;;;;;5034207;28;20033;-71
2023/11/05 09:53:41;;;;;;;4.65;2.38;;;;;;;;;;5034763;28;20048;-71
2023/11/05 09:56:07;;;;;;;6.43;2.20;;;;;;;;;;5033635;28;20406;-71
2023/11/05 09:58:32;;;;;;;3.55;2.60;;;;;;;;;;5034542;28;20022;-71
2023/11/05 10:00:57;;;;;;;3.95;2.40;;;;;;;;;;5033936;28;20045;-71
2023/11/05 10:03:25;;;;;;;7.05;2.25;;;;;;;;;;5033513;28;20368;-71
2023/11/05 10:05:52;;;;;;;5.43;2.55;;;;;;;;;;5015962;28;20033;-71
2023/11/05 10:08:18;;;;;;;5.90;2.70;;;;;;;;;;5016134;28;20022;-71
2023/11/05 10:10:44;;;;;;;6.75;2.53;;;;;;;;;;5032942;28;20045;-71
2023/11/05 10:13:09;;;;;;;4.68;2.50;;;;;;;;;;5033663;28;20018;-71
2023/11/05 10:15:36;;;;;;;4.88;2.50;;;;;;;;;;5016115;28;20375;-71
2023/11/05 10:18:02;;;;;;;5.63;2.28;;;;;;;;;;5034015;28;20421;-71
2023/11/05 10:20:30;;;;;;;6.68;2.45;;;;;;;;;;5037369;28;20479;-72
2023/11/05 10:23:03;;;;;;;8.70;2.95;;;;;;;;;;5020376;28;20513;-72
2023/11/05 10:25:28;;;;;;;6.78;2.55;;;;;;;;;;5019556;28;20029;-72
2023/11/05 10:27:54;;;;;;;4.85;2.22;;;;;;;;;;5037419;28;20029;-72
2023/11/05 10:30:20;;;;;;;3.22;2.03;;;;;;;;;;5019615;28;20533;-72
2023/11/05 10:32:51;;;;;;;4.05;2.45;;;;;;;;;;5018950;28;20021;-72
2023/11/05 10:35:30;;;;;;;5.15;2.17;;;;;;;;;;5019525;28;20076;-72
2023/11/05 10:37:56;;;;;;;6.43;2.30;;;;;;;;;;5037025;28;20024;-71
2023/11/05 10:40:22;;;;;;;4.40;2.50;;;;;;;;;;5037094;28;20102;-72
2023/11/05 10:42:48;;;;;;;8.40;2.63;;;;;;;;;;5019062;28;20053;-72
2023/11/05 10:45:15;;;;;;;5.32;2.47;;;;;;;;;;5018882;28;20034;-71
2023/11/05 10:47:40;;;;;;;3.70;2.10;;;;;;;;;;5037096;28;20049;-71
2023/11/05 10:50:16;;;;;;;5.57;2.33;;;;;;;;;;5019049;28;20056;-71
2023/11/05 10:52:43;;;;;;;5.97;3.00;;;;;;;;;;5037197;28;20028;-71
2023/11/05 10:55:09;;;;;;;5.78;2.25;;;;;;;;;;5036937;28;20104;-71
2023/11/05 10:57:40;;;;;;;4.82;2.30;;;;;;;;;;5036893;28;20029;-72
2023/11/05 11:00:08;;;;;;;6.72;2.88;;;;;;;;;;5019165;28;20064;-71
2023/11/05 11:02:40;;;;;;;6.60;2.30;;;;;;;;;;5036704;28;20025;-71
2023/11/05 11:05:08;;;;;;;2.85;2.10;;;;;;;;;;5036158;28;20053;-71
2023/11/05 11:07:33;;;;;;;3.42;2.03;;;;;;;;;;5015283;28;20104;-71
2023/11/05 11:09:59;;;;;;;5.30;2.38;;;;;;;;;;5020731;28;20109;-71
2023/11/05 11:12:31;;;;;;;3.28;1.95;;;;;;;;;;5026071;28;20029;-71
2023/11/05 11:14:56;;;;;;;3.85;2.30;;;;;;;;;;5015920;28;20025;-70
2023/11/05 11:17:21;;;;;;;6.95;2.58;;;;;;;;;;5032653;28;20029;-68
2023/11/05 11:19:48;;;;;;;4.93;2.25;;;;;;;;;;5036464;28;20033;-69
2023/11/05 11:22:15;;;;;;;4.70;2.10;;;;;;;;;;5030718;28;20018;-69
2023/11/05 11:24:42;;;;;;;8.75;2.63;;;;;;;;;;5020239;28;20052;-69
2023/11/05 11:27:11;;;;;;;4.30;2.63;;;;;;;;;;5016452;28;20025;-69
2023/11/05 11:29:38;;;;;;;3.50;2.63;;;;;;;;;;4997766;28;20479;-68
2023/11/05 11:32:03;;;;;;;4.45;1.98;;;;;;;;;;4999110;28;20034;-68
2023/11/05 11:34:32;;;;;;;5.07;2.40;;;;;;;;;;5016430;28;20025;-68
2023/11/05 11:37:03;;;;;;;4.22;2.20;;;;;;;;;;5015775;28;20057;-68
2023/11/05 11:39:29;;;;;;;4.75;2.42;;;;;;;;;;5028885;28;20475;-68
2023/11/05 11:41:55;;;;;;;4.05;2.25;;;;;;;;;;5018544;28;20025;-68
2023/11/05 11:44:20;;;;;;;5.03;2.30;;;;;;;;;;5035509;28;20026;-69
2023/11/05 11:46:47;;;;;;;3.10;2.47;;;;;;;;;;5035674;28;20433;-69
2023/11/05 11:49:13;;;;;;;3.42;2.30;;;;;;;;;;5018018;28;20379;-69
2023/11/05 11:51:38;;;;;;;5.20;2.50;;;;;;;;;;5017931;28;20085;-69
2023/11/05 11:54:04;;;;;;;4.40;2.63;;;;;;;;;;5017932;28;20025;-69
2023/11/05 11:56:33;;;;;;;4.85;2.50;;;;;;;;;;5035089;28;20026;-68
2023/11/05 11:59:05;;;;;;;7.40;2.25;;;;;;;;;;5017462;28;20029;-69
2023/11/05 12:01:31;;;;;;;3.72;2.33;;;;;;;;;;5018260;28;20445;-69
2023/11/05 12:03:57;;;;;;;3.78;2.38;;;;;;;;;;5017372;28;20032;-69
2023/11/05 12:06:23;;;;;;;4.10;2.15;;;;;;;;;;5017586;28;20408;-68
2023/11/05 12:08:49;;;;;;;3.67;2.40;;;;;;;;;;5035414;28;20026;-69
2023/11/05 12:11:19;;;;;;;6.75;2.58;;;;;;;;;;5035217;28;20025;-69
2023/11/05 12:13:46;;;;;;;5.93;2.42;;;;;;;;;;5017174;28;20018;-69
2023/11/05 12:16:15;;;;;;;5.40;2.53;;;;;;;;;;5017057;28;20124;-69
2023/11/05 12:18:42;;;;;;;5.13;2.50;;;;;;;;;;5034750;28;20025;-69
2023/11/05 12:21:13;;;;;;;5.00;2.80;;;;;;;;;;5016864;28;20026;-69
2023/11/05 12:23:40;;;;;;;4.38;2.35;;;;;;;;;;5016904;28;20022;-69
2023/11/05 12:26:07;;;;;;;4.53;2.83;;;;;;;;;;5017211;28;20037;-69
2023/11/05 12:28:33;;;;;;;4.38;2.75;;;;;;;;;;5034393;28;20037;-68
2023/11/05 12:31:07;;;;;;;8.13;3.35;;;;;;;;;;5035245;28;20382;-69
2023/11/05 12:33:34;;;;;;;4.75;2.35;;;;;;;;;;5034601;28;20029;-68
2023/11/05 12:35:59;;;;;;;4.68;2.30;;;;;;;;;;5033934;28;20025;-69
2023/11/05 12:38:25;;;;;;;6.38;2.47;;;;;;;;;;5016896;28;20032;-68
2023/11/05 12:40:52;;;;;;;4.95;2.75;;;;;;;;;;5034297;28;20398;-68
2023/11/05 12:43:18;;;;;;;5.20;2.72;;;;;;;;;;5034543;28;20025;-68
2023/11/05 12:45:44;;;;;;;7.18;2.58;;;;;;;;;;5017104;28;20148;-68
2023/11/05 12:48:09;;;;;;;6.22;2.45;;;;;;;;;;5033617;28;20102;-68
2023/11/05 12:50:35;;;;;;;7.05;2.58;;;;;;;;;;5034187;28;20021;-68
2023/11/05 12:53:01;;;;;;;4.43;2.90;;;;;;;;;;5034218;28;20025;-68
2023/11/05 12:55:29;;;;;;;3.55;2.63;;;;;;;;;;5016267;28;20025;-68
2023/11/05 12:57:54;;;;;;;5.68;2.80;;;;;;;;;;5016315;28;20083;-71
2023/11/05 13:00:20;;;;;;;4.97;2.60;;;;;;;;;;5033641;28;20029;-71
2023/11/05 13:02:45;;;;;;;4.05;2.65;;;;;;;;;;5034169;28;20028;-71
2023/11/05 13:05:10;;;;;;;5.00;2.47;;;;;;;;;;5034163;28;20075;-71
2023/11/05 13:07:35;;;;;;;3.38;2.63;;;;;;;;;;5033845;28;20025;-71
2023/11/05 13:10:04;;;;;;;4.97;3.00;;;;;;;;;;5033650;28;20399;-71
2023/11/05 13:12:30;;;;;;;6.10;2.70;;;;;;;;;;5015648;28;20021;-70
2023/11/05 13:14:56;;;;;;;3.85;2.55;;;;;;;;;;5033355;28;20045;-70
2023/11/05 13:17:21;;;;;;;8.48;3.83;;;;;;;;;;5033490;28;20064;-70
2023/11/05 13:19:47;;;;;;;5.22;2.72;;;;;;;;;;5016080;28;20087;-70
2023/11/05 13:22:13;;;;;;;8.50;3.00;;;;;;;;;;5033096;28;20392;-70
2023/11/05 13:24:38;;;;;;;4.32;2.60;;;;;;;;;;5032632;28;20108;-70
2023/11/05 13:27:03;;;;;;;5.93;3.20;;;;;;;;;;5033486;28;20053;-70
2023/11/05 13:29:29;;;;;;;3.83;2.53;;;;;;;;;;5015380;28;20078;-70
2023/11/05 13:31:54;;;;;;;6.15;2.97;;;;;;;;;;5033362;28;20029;-70
2023/11/05 13:34:20;;;;;;;4.45;3.20;;;;;;;;;;5033335;28;20017;-70
2023/11/05 13:36:46;;;;;;;4.07;2.92;;;;;;;;;;5015720;28;20036;-71
2023/11/05 13:39:12;;;;;;;5.65;3.30;;;;;;;;;;5033076;28;20021;-71
2023/11/05 13:41:37;;;;;;;4.45;2.72;;;;;;;;;;5015559;28;20024;-70
2023/11/05 13:44:05;;;;;;;7.00;3.28;;;;;;;;;;5033709;28;20480;-71
2023/11/05 13:46:31;;;;;;;5.28;3.33;;;;;;;;;;5034243;28;20025;-71
2023/11/05 13:48:56;;;;;;;3.60;2.72;;;;;;;;;;5017271;28;20486;-70
2023/11/05 13:51:22;;;;;;;6.57;3.05;;;;;;;;;;5033094;28;20155;-71
2023/11/05 13:53:53;;;;;;;3.72;2.30;;;;;;;;;;5014699;28;20075;-70
2023/11/05 13:56:18;;;;;;;5.95;2.35;;;;;;;;;;5033122;28;20075;-70
2023/11/05 13:58:43;;;;;;;4.00;2.78;;;;;;;;;;5033343;28;20437;-71
2023/11/05 14:01:09;;;;;;;4.72;3.53;;;;;;;;;;5032355;28;20088;-70
2023/11/05 14:03:34;;;;;;;6.18;2.70;;;;;;;;;;5033026;28;20060;-68
2023/11/05 14:05:59;;;;;;;5.45;3.45;;;;;;;;;;5033299;28;20029;-68
2023/11/05 14:08:26;;;;;;;4.45;3.17;;;;;;;;;;5032581;28;20048;-68
2023/11/05 14:10:51;;;;;;;7.05;3.10;;;;;;;;;;5033147;28;20021;-68
2023/11/05 14:13:16;;;;;;;6.50;3.28;;;;;;;;;;5032845;28;20036;-67
2023/11/05 14:15:42;;;;;;;3.58;2.55;;;;;;;;;;5032897;28;20395;-68
2023/11/05 14:18:08;;;;;;;4.25;3.30;;;;;;;;;;5033162;28;20056;-68
2023/11/05 14:20:35;;;;;;;7.15;3.47;;;;;;;;;;5032992;28;20034;-71
2023/11/05 14:23:00;;;;;;;5.22;3.10;;;;;;;;;;5014917;28;20578;-71
2023/11/05 14:25:26;;;;;;;4.20;3.45;;;;;;;;;;5032766;28;20209;-72
2023/11/05 14:27:51;;;;;;;4.70;4.20;;;;;;;;;;5032975;28;20028;-71
2023/11/05 14:30:16;;;;;;;4.15;3.25;;;;;;;;;;5032482;28;20057;-71
2023/11/05 14:32:42;;;;;;;4.30;3.20;;;;;;;;;;5032871;28;20116;-72